Terminal Aerodrome Forecast
Issued by NWS

Home | Current Version | Previous Version | Text Only | Print | Product List | Glossary Off
Versions: 1 2 3 4 5 6 7 8 9 10 11 12 13 14 15 16 17 18 19 20 21 22 23 24 25

000
FTUS43 KMPX 190334 AAA
TAFRWF
TAF AMD
KRWF 190334Z 1904/1924 15006KT 5SM BR SCT250
     FM190900 16009KT 3SM BR SCT005
     FM191200 18009KT 3/4SM BR VV002
     FM191500 17010KT 2SM BR VV005
     FM191800 17009KT 3SM BR BKN006=

USA.gov is the U.S. government's official web portal to all federal, state and local government web resources and services.